Observation data for Northwest San Angelo on 02/14/2018      Previous  Date  Next       Current Mesonet Observations  Soil Data  Daily Summary Page  Observations in Plain Language
KASU 140600Z 18007KT 14/11 A3029 RMK A01 T01440109  RH  081%=      5-min Rain = 0
KASU 140605Z 18006KT 14/11 A3028 RMK A01 T01440109  RH  081%=      5-min Rain = 0
KASU 140610Z 18005KT 14/11 A3028 RMK A01 T01440108  RH  081%=      5-min Rain = 0
KASU 140615Z 18004KT 14/11 A3028 RMK A01 T01440108  RH  081%=      5-min Rain = 0
KASU 140620Z 19004KT 14/11 A3028 RMK A01 T01430108  RH  081%=      5-min Rain = 0
KASU 140625Z 18005KT 14/11 A3028 RMK A01 T01430107  RH  081%=      5-min Rain = 0
KASU 140630Z 18005KT 14/11 A3027 RMK A01 T01430107  RH  081%=      5-min Rain = 0
KASU 140635Z 19005KT 14/11 A3028 RMK A01 T01430107  RH  081%=      5-min Rain = 0
KASU 140640Z 19005KT 14/11 A3028 RMK A01 T01430107  RH  081%=      5-min Rain = 0
KASU 140645Z 19006KT 14/11 A3028 RMK A01 T01420107  RH  081%=      5-min Rain = 0
KASU 140650Z 18007KT 14/11 A3027 RMK A01 T01410107  RH  081%=      5-min Rain = 0
KASU 140655Z 18006KT 14/11 A3028 RMK A01 T01410107  RH  081%=      5-min Rain = 0
KASU 140700Z 19006KT 14/11 A3028 RMK A01 T01410107  RH  081%=      5-min Rain = 0
KASU 140705Z 18008KT 14/11 A3028 RMK A01 T01400107  RH  082%=      5-min Rain = 0
KASU 140710Z 18009KT 14/11 A3028 RMK A01 T01400107  RH  082%=      5-min Rain = 0
KASU 140715Z 18008KT 14/11 A3028 RMK A01 T01390107  RH  082%=      5-min Rain = 0
KASU 140720Z 19006KT 14/11 A3028 RMK A01 T01390108  RH  083%=      5-min Rain = 0
KASU 140725Z 19005KT 14/11 A3028 RMK A01 T01390107  RH  083%=      5-min Rain = 0
KASU 140730Z 19005KT 14/11 A3028 RMK A01 T01390107  RH  083%=      5-min Rain = 0
KASU 140735Z 19005KT 14/11 A3028 RMK A01 T01390107  RH  083%=      5-min Rain = 0
KASU 140740Z 19005KT 14/11 A3028 RMK A01 T01380107  RH  083%=      5-min Rain = 0
KASU 140745Z 19004KT 14/11 A3027 RMK A01 T01380107  RH  083%=      5-min Rain = 0
KASU 140750Z 19005KT 14/11 A3027 RMK A01 T01380106  RH  083%=      5-min Rain = 0
KASU 140755Z 21006KT 14/11 A3027 RMK A01 T01370105  RH  082%=      5-min Rain = 0
KASU 140800Z 21006KT 14/11 A3027 RMK A01 T01360105  RH  082%=      5-min Rain = 0
KASU 140805Z 21006KT 14/10 A3027 RMK A01 T01360104  RH  083%=      5-min Rain = 0
KASU 140810Z 21005KT 14/10 A3027 RMK A01 T01350104  RH  083%=      5-min Rain = 0
KASU 140815Z 20007KT 14/10 A3026 RMK A01 T01350104  RH  083%=      5-min Rain = 0
KASU 140820Z 19007KT 13/10 A3026 RMK A01 T01340104  RH  083%=      5-min Rain = 0
KASU 140825Z 19006KT 13/10 A3026 RMK A01 T01340103  RH  083%=      5-min Rain = 0
KASU 140830Z 20005KT 13/10 A3026 RMK A01 T01340103  RH  083%=      5-min Rain = 0
KASU 140835Z 20004KT 13/10 A3025 RMK A01 T01330103  RH  083%=      5-min Rain = 0
KASU 140840Z 19004KT 13/10 A3025 RMK A01 T01330103  RH  083%=      5-min Rain = 0
KASU 140845Z 20005KT 13/10 A3025 RMK A01 T01330103  RH  083%=      5-min Rain = 0
KASU 140850Z 21006KT 13/10 A3025 RMK A01 T01320102  RH  083%=      5-min Rain = 0
KASU 140855Z 21006KT 13/10 A3025 RMK A01 T01320102  RH  083%=      5-min Rain = 0
KASU 140900Z 20008KT 13/10 A3025 RMK A01 T01320101  RH  083%=      5-min Rain = 0
KASU 140905Z 20008KT 13/10 A3025 RMK A01 T01310101  RH  083%=      5-min Rain = 0
KASU 140910Z 19007KT 13/10 A3025 RMK A01 T01300101  RH  083%=      5-min Rain = 0
KASU 140915Z 19007KT 13/10 A3025 RMK A01 T01300100  RH  084%=      5-min Rain = 0
KASU 140920Z 18007KT 13/10 A3025 RMK A01 T01290100  RH  084%=      5-min Rain = 0
KASU 140925Z 17007KT 13/10 A3025 RMK A01 T01290100  RH  084%=      5-min Rain = 0
KASU 140930Z 18009KT 13/10 A3024 RMK A01 T01290100  RH  084%=      5-min Rain = 0
KASU 140935Z 19008KT 13/10 A3024 RMK A01 T01280101  RH  085%=      5-min Rain = 0
KASU 140940Z 20005KT 13/10 A3025 RMK A01 T01280101  RH  085%=      5-min Rain = 0
KASU 140945Z 21006KT 13/10 A3025 RMK A01 T01280100  RH  085%=      5-min Rain = 0
KASU 140950Z 20007KT 13/10 A3025 RMK A01 T01280100  RH  085%=      5-min Rain = 0
KASU 140955Z 19007KT 13/10 A3024 RMK A01 T01270099  RH  085%=      5-min Rain = 0
KASU 141000Z 19006KT 13/10 A3024 RMK A01 T01270099  RH  085%=      5-min Rain = 0
KASU 141005Z 20005KT 13/10 A3024 RMK A01 T01270099  RH  085%=      5-min Rain = 0
KASU 141010Z 20005KT 13/10 A3024 RMK A01 T01260098  RH  085%=      5-min Rain = 0
KASU 141015Z 21005KT 13/10 A3024 RMK A01 T01260098  RH  085%=      5-min Rain = 0
KASU 141020Z 20004KT 13/10 A3024 RMK A01 T01250098  RH  085%=      5-min Rain = 0
KASU 141025Z 20005KT 13/10 A3024 RMK A01 T01250098  RH  085%=      5-min Rain = 0
KASU 141030Z 20005KT 13/10 A3024 RMK A01 T01250098  RH  085%=      5-min Rain = 0
KASU 141035Z 19005KT 13/10 A3024 RMK A01 T01250098  RH  085%=      5-min Rain = 0
KASU 141040Z 20003KT 12/10 A3023 RMK A01 T01240097  RH  085%=      5-min Rain = 0
KASU 141045Z 20003KT 12/10 A3023 RMK A01 T01230097  RH  085%=      5-min Rain = 0
KASU 141050Z 21003KT 12/10 A3023 RMK A01 T01230096  RH  085%=      5-min Rain = 0
KASU 141055Z 23004KT 12/10 A3023 RMK A01 T01220095  RH  085%=      5-min Rain = 0
KASU 141100Z 22004KT 12/10 A3023 RMK A01 T01210095  RH  085%=      5-min Rain = 0
KASU 141105Z 24003KT 12/10 A3024 RMK A01 T01210095  RH  085%=      5-min Rain = 0
KASU 141110Z 23003KT 12/10 A3024 RMK A01 T01210095  RH  086%=      5-min Rain = 0
KASU 141115Z 21004KT 12/10 A3024 RMK A01 T01210096  RH  086%=      5-min Rain = 0
KASU 141120Z 20004KT 12/10 A3024 RMK A01 T01210096  RH  086%=      5-min Rain = 0
KASU 141125Z 20006KT 12/10 A3024 RMK A01 T01210096  RH  086%=      5-min Rain = 0
KASU 141130Z 21007KT 12/10 A3024 RMK A01 T01220096  RH  086%=      5-min Rain = 0
KASU 141135Z 21005KT 12/10 A3024 RMK A01 T01220096  RH  086%=      5-min Rain = 0
KASU 141140Z 20006KT 12/10 A3024 RMK A01 T01210096  RH  086%=      5-min Rain = 0
KASU 141145Z 20006KT 12/10 A3024 RMK A01 T01210096  RH  086%=      5-min Rain = 0
KASU 141150Z 21004KT 12/10 A3024 RMK A01 T01210096  RH  086%=      5-min Rain = 0
KASU 141155Z 22004KT 12/10 A3024 RMK A01 T01200095  RH  086%=      5-min Rain = 0
KASU 141200Z 21005KT 12/09 A3023 RMK A01 T01200094  RH  086%=      5-min Rain = 0
KASU 141205Z 20005KT 12/09 A3023 RMK A01 T01190094  RH  086%=      5-min Rain = 0
KASU 141210Z 20006KT 12/09 A3023 RMK A01 T01190094  RH  086%=      5-min Rain = 0
KASU 141215Z 22005KT 12/09 A3024 RMK A01 T01190094  RH  086%=      5-min Rain = 0
KASU 141220Z 22003KT 12/09 A3024 RMK A01 T01190094  RH  086%=      5-min Rain = 0
KASU 141225Z 22004KT 12/09 A3023 RMK A01 T01180094  RH  086%=      5-min Rain = 0
KASU 141230Z 21005KT 12/09 A3023 RMK A01 T01180094  RH  087%=      5-min Rain = 0
KASU 141235Z 21006KT 12/09 A3023 RMK A01 T01180094  RH  087%=      5-min Rain = 0
KASU 141240Z 23005KT 12/09 A3025 RMK A01 T01180094  RH  087%=      5-min Rain = 0
KASU 141245Z 23005KT 12/09 A3025 RMK A01 T01180094  RH  087%=      5-min Rain = 0
KASU 141250Z 22005KT 12/09 A3025 RMK A01 T01180094  RH  087%=      5-min Rain = 0
KASU 141255Z 22005KT 12/10 A3025 RMK A01 T01180095  RH  087%=      5-min Rain = 0
KASU 141300Z 23004KT 12/09 A3025 RMK A01 T01180094  RH  087%=      5-min Rain = 0
KASU 141305Z 23004KT 12/09 A3025 RMK A01 T01180094  RH  086%=      5-min Rain = 0
KASU 141310Z 23006KT 12/09 A3025 RMK A01 T01180093  RH  086%=      5-min Rain = 0
KASU 141315Z 21006KT 12/09 A3025 RMK A01 T01180093  RH  086%=      5-min Rain = 0
KASU 141320Z 20005KT 12/09 A3025 RMK A01 T01180093  RH  086%=      5-min Rain = 0
KASU 141325Z 20005KT 12/09 A3025 RMK A01 T01180093  RH  086%=      5-min Rain = 0
KASU 141330Z 20006KT 12/09 A3025 RMK A01 T01180093  RH  086%=      5-min Rain = 0
KASU 141335Z 21005KT 12/09 A3025 RMK A01 T01180092  RH  085%=      5-min Rain = 0
KASU 141340Z 22004KT 12/09 A3025 RMK A01 T01180091  RH  085%=      5-min Rain = 0
KASU 141345Z 22006KT 12/09 A3025 RMK A01 T01170091  RH  085%=      5-min Rain = 0
KASU 141350Z 21007KT 12/09 A3025 RMK A01 T01170090  RH  085%=      5-min Rain = 0
KASU 141355Z 21006KT 12/09 A3025 RMK A01 T01170090  RH  085%=      5-min Rain = 0
KASU 141400Z 22007KT 12/09 A3025 RMK A01 T01160090  RH  085%=      5-min Rain = 0
KASU 141405Z 21007KT 12/09 A3025 RMK A01 T01160089  RH  085%=      5-min Rain = 0
KASU 141410Z 20008KT 12/09 A3025 RMK A01 T01160089  RH  085%=      5-min Rain = 0
KASU 141415Z 20009KT 12/09 A3026 RMK A01 T01160088  RH  084%=      5-min Rain = 0
KASU 141420Z 21010G15KT 12/09 A3026 RMK A01 T01160087  RH  084%=      5-min Rain = 0
KASU 141425Z 20009KT 12/09 A3026 RMK A01 T01160087  RH  083%=      5-min Rain = 0
KASU 141430Z 20008G13KT 12/09 A3026 RMK A01 T01170086  RH  083%=      5-min Rain = 0
KASU 141435Z 21007KT 12/09 A3025 RMK A01 T01170087  RH  083%=      5-min Rain = 0
KASU 141440Z 20008KT 12/09 A3025 RMK A01 T01160086  RH  083%=      5-min Rain = 0
KASU 141445Z 20009KT 12/09 A3025 RMK A01 T01170087  RH  083%=      5-min Rain = 0
KASU 141450Z 20009KT 12/09 A3026 RMK A01 T01170087  RH  083%=      5-min Rain = 0
KASU 141455Z 21009KT 12/09 A3026 RMK A01 T01180088  RH  083%=      5-min Rain = 0
KASU 141500Z 19009KT 12/09 A3025 RMK A01 T01190088  RH  083%=      5-min Rain = 0
KASU 141505Z 19009KT 12/09 A3025 RMK A01 T01210088  RH  082%=      5-min Rain = 0
KASU 141510Z 18009KT 12/09 A3025 RMK A01 T01230088  RH  081%=      5-min Rain = 0
KASU 141515Z 19009G15KT 12/09 A3025 RMK A01 T01240088  RH  080%=      5-min Rain = 0
KASU 141520Z 18011KT 13/09 A3025 RMK A01 T01250088  RH  080%=      5-min Rain = 0
KASU 141525Z 18010KT 13/09 A3025 RMK A01 T01260088  RH  079%=      5-min Rain = 0
KASU 141530Z 17010KT 13/09 A3025 RMK A01 T01260087  RH  079%=      5-min Rain = 0
KASU 141535Z 17010KT 13/09 A3025 RMK A01 T01280088  RH  078%=      5-min Rain = 0
KASU 141540Z 17009KT 13/09 A3025 RMK A01 T01300088  RH  077%=      5-min Rain = 0
KASU 141545Z 17008KT 13/09 A3025 RMK A01 T01310089  RH  077%=      5-min Rain = 0
KASU 141550Z 17009KT 14/09 A3025 RMK A01 T01360090  RH  075%=      5-min Rain = 0
KASU 141555Z 19011KT 14/09 A3025 RMK A01 T01350089  RH  075%=      5-min Rain = 0
KASU 141600Z 19010KT 13/09 A3025 RMK A01 T01320089  RH  076%=      5-min Rain = 0
KASU 141605Z 18010KT 14/09 A3024 RMK A01 T01370091  RH  075%=      5-min Rain = 0
KASU 141610Z 17009KT 14/09 A3024 RMK A01 T01430092  RH  073%=      5-min Rain = 0
KASU 141615Z 17010KT 15/09 A3025 RMK A01 T01470092  RH  071%=      5-min Rain = 0
KASU 141620Z 19010G15KT 15/09 A3025 RMK A01 T01480092  RH  070%=      5-min Rain = 0
KASU 141625Z 20010KT 15/09 A3025 RMK A01 T01470093  RH  071%=      5-min Rain = 0
KASU 141630Z 18009KT 15/09 A3025 RMK A01 T01520094  RH  069%=      5-min Rain = 0
KASU 141635Z 19009KT 16/09 A3025 RMK A01 T01570094  RH  067%=      5-min Rain = 0
KASU 141640Z 17009KT 16/09 A3025 RMK A01 T01570094  RH  067%=      5-min Rain = 0
KASU 141645Z 19009KT 16/09 A3025 RMK A01 T01580094  RH  067%=      5-min Rain = 0
KASU 141650Z 19010KT 16/10 A3025 RMK A01 T01620096  RH  066%=      5-min Rain = 0
KASU 141655Z 20009KT 16/09 A3025 RMK A01 T01610094  RH  066%=      5-min Rain = 0
KASU 141700Z 19009KT 16/10 A3024 RMK A01 T01630096  RH  065%=      5-min Rain = 0
KASU 141705Z 19009KT 17/10 A3024 RMK A01 T01650096  RH  065%=      5-min Rain = 0
KASU 141710Z 19009KT 17/10 A3024 RMK A01 T01690096  RH  063%=      5-min Rain = 0
KASU 141715Z 18009KT 17/10 A3024 RMK A01 T01730098  RH  062%=      5-min Rain = 0
KASU 141720Z 19009G14KT 18/10 A3024 RMK A01 T01760098  RH  061%=      5-min Rain = 0
KASU 141725Z 18010KT 18/10 A3024 RMK A01 T01810098  RH  059%=      5-min Rain = 0
KASU 141730Z 20008KT 18/10 A3023 RMK A01 T01760098  RH  061%=      5-min Rain = 0
KASU 141735Z 18008KT 18/10 A3022 RMK A01 T01810100  RH  060%=      5-min Rain = 0
KASU 141740Z 17008KT 19/10 A3023 RMK A01 T01890101  RH  057%=      5-min Rain = 0
KASU 141745Z 16008G13KT 19/10 A3022 RMK A01 T01930101  RH  056%=      5-min Rain = 0
KASU 141750Z 16009KT 19/10 A3022 RMK A01 T01930101  RH  056%=      5-min Rain = 0
KASU 141755Z 15009KT 20/10 A3021 RMK A01 T01950101  RH  055%=      5-min Rain = 0
KASU 141800Z 18008KT 20/10 A3022 RMK A01 T01970102  RH  055%=      5-min Rain = 0
KASU 141805Z 17010KT 20/10 A3022 RMK A01 T02000103  RH  054%=      5-min Rain = 0
KASU 141810Z 18010KT 20/10 A3021 RMK A01 T01970102  RH  055%=      5-min Rain = 0
KASU 141815Z 19009G14KT 20/10 A3021 RMK A01 T01980104  RH  055%=      5-min Rain = 0
KASU 141820Z 18010G17KT 20/10 A3021 RMK A01 T02030103  RH  053%=      5-min Rain = 0
KASU 141825Z 19011KT 20/10 A3021 RMK A01 T02020103  RH  054%=      5-min Rain = 0
KASU 141830Z 19010KT 20/10 A302 RMK A01 T02040104  RH  053%=      5-min Rain = 0
KASU 141835Z 18009KT 21/10 A302 RMK A01 T02090104  RH  052%=      5-min Rain = 0
KASU 141840Z 20009KT 21/11 A302 RMK A01 T02120106  RH  052%=      5-min Rain = 0
KASU 141845Z 20010KT 22/11 A302 RMK A01 T02150108  RH  051%=      5-min Rain = 0
KASU 141850Z 18012KT 22/11 A3019 RMK A01 T02200109  RH  050%=      5-min Rain = 0
KASU 141855Z 19012G17KT 22/11 A3019 RMK A01 T02190108  RH  050%=      5-min Rain = 0
KASU 141900Z 19013G19KT 22/11 A3019 RMK A01 T02210110  RH  050%=      5-min Rain = 0
KASU 141905Z 19011G16KT 22/11 A3019 RMK A01 T02230111  RH  050%=      5-min Rain = 0
KASU 141910Z 19011G18KT 22/11 A3018 RMK A01 T02240111  RH  050%=      5-min Rain = 0
KASU 141915Z 18012G18KT 23/11 A3018 RMK A01 T02260111  RH  049%=      5-min Rain = 0
KASU 141920Z 19014G19KT 23/11 A3017 RMK A01 T02310110  RH  047%=      5-min Rain = 0
KASU 141925Z 19014G22KT 23/11 A3017 RMK A01 T02280108  RH  047%=      5-min Rain = 0
KASU 141930Z 19015KT 24/11 A3016 RMK A01 T02350108  RH  045%=      5-min Rain = 0
KASU 141935Z 19012KT 24/11 A3016 RMK A01 T02360108  RH  045%=      5-min Rain = 0
KASU 141940Z 18014G19KT 24/11 A3016 RMK A01 T02400108  RH  044%=      5-min Rain = 0
KASU 141945Z 19011G16KT 24/11 A3015 RMK A01 T02400107  RH  044%=      5-min Rain = 0
KASU 141950Z 18013G18KT 24/11 A3015 RMK A01 T02420108  RH  044%=      5-min Rain = 0
KASU 141955Z 19013G20KT 25/11 A3015 RMK A01 T02470108  RH  042%=      5-min Rain = 0
KASU 142000Z 19012KT 24/11 A3014 RMK A01 T02410108  RH  044%=      5-min Rain = 0
KASU 142005Z 19012G18KT 25/11 A3014 RMK A01 T02480107  RH  042%=      5-min Rain = 0
KASU 142010Z 19012KT 25/11 A3013 RMK A01 T02500107  RH  041%=      5-min Rain = 0
KASU 142015Z 18014G19KT 25/11 A3013 RMK A01 T02520106  RH  041%=      5-min Rain = 0
KASU 142020Z 18013KT 25/11 A3013 RMK A01 T02530107  RH  041%=      5-min Rain = 0
KASU 142025Z 19013G18KT 26/11 A3013 RMK A01 T02550106  RH  040%=      5-min Rain = 0
KASU 142030Z 18013KT 26/11 A3012 RMK A01 T02560105  RH  039%=      5-min Rain = 0
KASU 142035Z 19012G17KT 25/11 A3012 RMK A01 T02540107  RH  040%=      5-min Rain = 0
KASU 142040Z 17012G17KT 26/11 A3012 RMK A01 T02590106  RH  039%=      5-min Rain = 0
KASU 142045Z 16010KT 26/11 A3011 RMK A01 T02570107  RH  040%=      5-min Rain = 0
KASU 142050Z 17011KT 26/11 A3011 RMK A01 T02610107  RH  039%=      5-min Rain = 0
KASU 142055Z 18012KT 26/11 A3011 RMK A01 T02600106  RH  039%=      5-min Rain = 0
KASU 142100Z 17010G15KT 27/11 A301 RMK A01 T02650107  RH  038%=      5-min Rain = 0
KASU 142105Z 17012KT 27/11 A301 RMK A01 T02650106  RH  037%=      5-min Rain = 0
KASU 142110Z 17012KT 26/11 A301 RMK A01 T02620105  RH  038%=      5-min Rain = 0
KASU 142115Z 17011G16KT 26/11 A301 RMK A01 T02630105  RH  038%=      5-min Rain = 0
KASU 142120Z 16011KT 26/10 A3009 RMK A01 T02610103  RH  038%=      5-min Rain = 0
KASU 142125Z 17011KT 26/11 A3009 RMK A01 T02640105  RH  038%=      5-min Rain = 0
KASU 142130Z 17011G16KT 27/10 A3009 RMK A01 T02650102  RH  037%=      5-min Rain = 0
KASU 142135Z 17013G18KT 26/10 A3009 RMK A01 T02640101  RH  037%=      5-min Rain = 0
KASU 142140Z 16013G18KT 27/10 A3009 RMK A01 T02650102  RH  037%=      5-min Rain = 0
KASU 142145Z 16014KT 27/10 A3008 RMK A01 T02650102  RH  036%=      5-min Rain = 0
KASU 142150Z 16014KT 26/10 A3008 RMK A01 T02640102  RH  037%=      5-min Rain = 0
KASU 142155Z 17013KT 26/10 A3008 RMK A01 T02640102  RH  037%=      5-min Rain = 0
KASU 142200Z 17013KT 27/10 A3007 RMK A01 T02670101  RH  036%=      5-min Rain = 0
KASU 142205Z 17012KT 27/10 A3007 RMK A01 T02650101  RH  036%=      5-min Rain = 0
KASU 142210Z 16013KT 27/10 A3007 RMK A01 T02660102  RH  036%=      5-min Rain = 0
KASU 142215Z 17012KT 27/10 A3006 RMK A01 T02690102  RH  036%=      5-min Rain = 0
KASU 142220Z 17014KT 27/10 A3006 RMK A01 T02670100  RH  036%=      5-min Rain = 0
KASU 142225Z 18013KT 27/10 A3006 RMK A01 T02660100  RH  036%=      5-min Rain = 0
KASU 142230Z 17012KT 27/10 A3006 RMK A01 T02660101  RH  036%=      5-min Rain = 0
KASU 142235Z 17012KT 27/10 A3006 RMK A01 T02660102  RH  036%=      5-min Rain = 0
KASU 142240Z 17013KT 26/10 A3006 RMK A01 T02640103  RH  037%=      5-min Rain = 0
KASU 142245Z 17013KT 26/10 A3006 RMK A01 T02640103  RH  037%=      5-min Rain = 0
KASU 142250Z 17012KT 26/10 A3006 RMK A01 T02590103  RH  038%=      5-min Rain = 0
KASU 142255Z 17012KT 26/11 A3006 RMK A01 T02570105  RH  039%=      5-min Rain = 0
KASU 142300Z 17014G19KT 26/10 A3005 RMK A01 T02580104  RH  038%=      5-min Rain = 0
KASU 142305Z 17014KT 26/10 A3005 RMK A01 T02600103  RH  038%=      5-min Rain = 0
KASU 142310Z 17013KT 26/10 A3005 RMK A01 T02620104  RH  038%=      5-min Rain = 0
KASU 142315Z 17012G17KT 26/11 A3005 RMK A01 T02610105  RH  038%=      5-min Rain = 0
KASU 142320Z 17013KT 26/11 A3004 RMK A01 T02600105  RH  038%=      5-min Rain = 0
KASU 142325Z 16012KT 26/11 A3004 RMK A01 T02570106  RH  039%=      5-min Rain = 0
KASU 142330Z 17012KT 26/11 A3005 RMK A01 T02560107  RH  040%=      5-min Rain = 0
KASU 142335Z 18010G15KT 26/11 A3004 RMK A01 T02560105  RH  039%=      5-min Rain = 0
KASU 142340Z 17012G17KT 25/11 A3004 RMK A01 T02530106  RH  040%=      5-min Rain = 0
KASU 142345Z 18011G17KT 25/11 A3004 RMK A01 T02510105  RH  041%=      5-min Rain = 0
KASU 142350Z 18012G17KT 25/11 A3004 RMK A01 T02460105  RH  042%=      5-min Rain = 0
KASU 142355Z 17010KT 24/11 A3004 RMK A01 T02440107  RH  043%=      5-min Rain = 0
KASU 150000Z 17007KT 24/11 A3004 RMK A01 T02430107  RH  043%=      5-min Rain = 0
KASU 150005Z 17009KT 24/11 A3004 RMK A01 T02420108  RH  044%=      5-min Rain = 0
KASU 150010Z 17011KT 24/11 A3004 RMK A01 T02420109  RH  044%=      5-min Rain = 0
KASU 150015Z 17011KT 24/11 A3004 RMK A01 T02390110  RH  045%=      5-min Rain = 0
KASU 150020Z 17009G14KT 24/11 A3004 RMK A01 T02360110  RH  046%=      5-min Rain = 0
KASU 150025Z 16007G12KT 23/11 A3004 RMK A01 T02320110  RH  047%=      5-min Rain = 0
KASU 150030Z 17008G13KT 23/11 A3004 RMK A01 T02290110  RH  048%=      5-min Rain = 0
KASU 150035Z 17008G13KT 23/11 A3004 RMK A01 T02270111  RH  049%=      5-min Rain = 0
KASU 150040Z 16007KT 22/11 A3004 RMK A01 T02240111  RH  050%=      5-min Rain = 0
KASU 150045Z 16008KT 22/11 A3004 RMK A01 T02210111  RH  050%=      5-min Rain = 0
KASU 150050Z 16006KT 22/11 A3004 RMK A01 T02180110  RH  051%=      5-min Rain = 0
KASU 150055Z 17005KT 22/11 A3004 RMK A01 T02150110  RH  052%=      5-min Rain = 0
KASU 150100Z 17003KT 21/11 A3005 RMK A01 T02120110  RH  053%=      5-min Rain = 0
KASU 150105Z 16004KT 21/11 A3005 RMK A01 T02090109  RH  054%=      5-min Rain = 0
KASU 150110Z 15006KT 21/11 A3005 RMK A01 T02080109  RH  054%=      5-min Rain = 0
KASU 150115Z 16006KT 21/11 A3005 RMK A01 T02070109  RH  054%=      5-min Rain = 0
KASU 150120Z 16006KT 21/11 A3005 RMK A01 T02050108  RH  055%=      5-min Rain = 0
KASU 150125Z 16006KT 20/11 A3005 RMK A01 T02040109  RH  055%=      5-min Rain = 0
KASU 150130Z 16007KT 20/11 A3005 RMK A01 T02030108  RH  055%=      5-min Rain = 0
KASU 150135Z 16008KT 21/11 A3005 RMK A01 T02060110  RH  055%=      5-min Rain = 0
KASU 150140Z 17009KT 21/11 A3006 RMK A01 T02070110  RH  055%=      5-min Rain = 0
KASU 150145Z 17009KT 21/11 A3006 RMK A01 T02050109  RH  055%=      5-min Rain = 0
KASU 150150Z 17009KT 21/11 A3006 RMK A01 T02060110  RH  055%=      5-min Rain = 0
KASU 150155Z 17008KT 20/11 A3006 RMK A01 T02030109  RH  055%=      5-min Rain = 0
KASU 150200Z 17009KT 20/11 A3006 RMK A01 T02030109  RH  056%=      5-min Rain = 0
KASU 150205Z 17010KT 20/11 A3007 RMK A01 T02030109  RH  056%=      5-min Rain = 0
KASU 150210Z 17010KT 20/11 A3007 RMK A01 T02020109  RH  056%=      5-min Rain = 0
KASU 150215Z 17010KT 20/11 A3007 RMK A01 T02010109  RH  056%=      5-min Rain = 0
KASU 150220Z 17009KT 20/11 A3007 RMK A01 T01990109  RH  057%=      5-min Rain = 0
KASU 150225Z 17010KT 20/11 A3007 RMK A01 T01990109  RH  057%=      5-min Rain = 0
KASU 150230Z 17011G16KT 20/11 A3007 RMK A01 T01990109  RH  057%=      5-min Rain = 0
KASU 150235Z 17012G20KT 20/11 A3006 RMK A01 T01980109  RH  058%=      5-min Rain = 0
KASU 150240Z 17012KT 20/11 A3006 RMK A01 T01980109  RH  057%=      5-min Rain = 0
KASU 150245Z 17013KT 20/11 A3006 RMK A01 T01970109  RH  058%=      5-min Rain = 0
KASU 150250Z 18010KT 19/11 A3007 RMK A01 T01940108  RH  058%=      5-min Rain = 0
KASU 150255Z 18012G17KT 19/11 A3007 RMK A01 T01940109  RH  059%=      5-min Rain = 0
KASU 150300Z 18010KT 19/11 A3007 RMK A01 T01940109  RH  059%=      5-min Rain = 0
KASU 150305Z 18008KT 19/11 A3007 RMK A01 T01920108  RH  059%=      5-min Rain = 0
KASU 150310Z 18007KT 19/11 A3007 RMK A01 T01890108  RH  060%=      5-min Rain = 0
KASU 150315Z 19007KT 19/11 A3007 RMK A01 T01900108  RH  060%=      5-min Rain = 0
KASU 150320Z 18006KT 19/11 A3008 RMK A01 T01870107  RH  061%=      5-min Rain = 0
KASU 150325Z 17007KT 18/11 A3007 RMK A01 T01840107  RH  062%=      5-min Rain = 0
KASU 150330Z 18008KT 19/11 A3007 RMK A01 T01850109  RH  062%=      5-min Rain = 0
KASU 150335Z 18008KT 18/11 A3008 RMK A01 T01840109  RH  062%=      5-min Rain = 0
KASU 150340Z 18007KT 18/11 A3008 RMK A01 T01830109  RH  063%=      5-min Rain = 0
KASU 150345Z 18008KT 18/11 A3008 RMK A01 T01820109  RH  063%=      5-min Rain = 0
KASU 150350Z 18008KT 18/11 A3008 RMK A01 T01810110  RH  064%=      5-min Rain = 0
KASU 150355Z 18008KT 18/11 A3008 RMK A01 T01800110  RH  064%=      5-min Rain = 0
KASU 150400Z 18009KT 18/11 A3008 RMK A01 T01800111  RH  065%=      5-min Rain = 0
KASU 150405Z 18008KT 18/11 A3008 RMK A01 T01790111  RH  065%=      5-min Rain = 0
KASU 150410Z 19009KT 18/11 A3008 RMK A01 T01790111  RH  066%=      5-min Rain = 0
KASU 150415Z 18008KT 18/11 A3008 RMK A01 T01790112  RH  066%=      5-min Rain = 0
KASU 150420Z 18009KT 18/11 A3008 RMK A01 T01790112  RH  066%=      5-min Rain = 0
KASU 150425Z 18008KT 18/11 A3008 RMK A01 T01770112  RH  067%=      5-min Rain = 0
KASU 150430Z 18008KT 18/11 A3008 RMK A01 T01760112  RH  067%=      5-min Rain = 0
KASU 150435Z 17009KT 18/11 A3008 RMK A01 T01760112  RH  067%=      5-min Rain = 0
KASU 150440Z 17007G12KT 18/11 A3008 RMK A01 T01750112  RH  068%=      5-min Rain = 0
KASU 150445Z 17006KT 17/11 A3008 RMK A01 T01730112  RH  069%=      5-min Rain = 0
KASU 150450Z 18004KT 17/11 A3008 RMK A01 T01720111  RH  069%=      5-min Rain = 0
KASU 150455Z 18006G13KT 17/11 A3007 RMK A01 T01700111  RH  070%=      5-min Rain = 0
KASU 150500Z 17007G12KT 17/11 A3007 RMK A01 T01720113  RH  069%=      5-min Rain = 0
KASU 150505Z 17009KT 17/11 A3007 RMK A01 T01720114  RH  070%=      5-min Rain = 0
KASU 150510Z 17007G12KT 17/11 A3007 RMK A01 T01720114  RH  070%=      5-min Rain = 0
KASU 150515Z 17007KT 17/11 A3007 RMK A01 T01710114  RH  070%=      5-min Rain = 0
KASU 150520Z 17006KT 17/11 A3007 RMK A01 T01700114  RH  071%=      5-min Rain = 0
KASU 150525Z 18007KT 17/12 A3008 RMK A01 T01710115  RH  071%=      5-min Rain = 0
KASU 150530Z 18006G11KT 17/11 A3008 RMK A01 T01690114  RH  071%=      5-min Rain = 0
KASU 150535Z 17007G14KT 17/12 A3007 RMK A01 T01690115  RH  072%=      5-min Rain = 0
KASU 150540Z 18009KT 17/12 A3007 RMK A01 T01700117  RH  072%=      5-min Rain = 0
KASU 150545Z 18006KT 17/12 A3007 RMK A01 T01700117  RH  072%=      5-min Rain = 0
KASU 150550Z 19004KT 17/12 A3007 RMK A01 T01690117  RH  073%=      5-min Rain = 0
KASU 150555Z 18005KT 17/12 A3007 RMK A01 T01700117  RH  073%=      5-min Rain = 0

Page generated in 0.0188 seconds.